Time,TemperatureF,DewpointF,PressureIn,WindDirection,WindDirectionDegrees,WindSpeedMPH,WindSpeedGustMPH,Humidity,HourlyPrecipIn,Conditions,Clouds,dailyrainin,SoftwareType,DateUTC
2013-10-24 00:08:00,36.7,34.0,30.13,West,265,2.0,5.0,88,0.00,,,0.00,weatherlink.com 1.10,2013-10-24 05:08:00,
2013-10-24 00:23:00,36.7,34.0,30.13,SSW,209,2.0,4.0,88,0.00,,,0.00,weatherlink.com 1.10,2013-10-24 05:23:00,
2013-10-24 00:38:00,36.7,34.0,30.13,West,270,3.0,7.0,89,0.00,,,0.00,weatherlink.com 1.10,2013-10-24 05:38:00,
2013-10-24 00:53:00,36.7,34.0,30.13,West,280,2.0,9.0,89,0.00,,,0.00,weatherlink.com 1.10,2013-10-24 05:53:00,
2013-10-24 01:09:00,36.8,34.0,30.14,WNW,295,0.0,8.0,90,0.00,,,0.00,weatherlink.com 1.10,2013-10-24 06:09:00,
2013-10-24 01:24:00,36.9,35.0,30.14,West,281,5.0,7.0,91,0.00,,,0.00,weatherlink.com 1.10,2013-10-24 06:24:00,
2013-10-24 01:39:00,37.2,35.0,30.14,West,279,4.0,8.0,91,0.00,,,0.00,weatherlink.com 1.10,2013-10-24 06:39:00,
2013-10-24 01:54:00,37.5,35.0,30.14,West,271,1.0,8.0,91,0.00,,,0.00,weatherlink.com 1.10,2013-10-24 06:54:00,
2013-10-24 02:09:00,37.7,35.0,30.14,West,277,4.0,11.0,91,0.00,,,0.00,weatherlink.com 1.10,2013-10-24 07:09:00,
2013-10-24 02:24:00,37.8,35.0,30.14,NW,309,7.0,12.0,90,0.00,,,0.00,weatherlink.com 1.10,2013-10-24 07:24:00,
2013-10-24 02:39:00,37.7,35.0,30.15,NNW,331,4.0,10.0,89,0.00,,,0.00,weatherlink.com 1.10,2013-10-24 07:39:00,
2013-10-24 02:54:00,37.8,35.0,30.14,NW,314,3.0,11.0,88,0.00,,,0.00,weatherlink.com 1.10,2013-10-24 07:54:00,
2013-10-24 03:09:00,37.7,34.0,30.15,NW,323,6.0,12.0,87,0.00,,,0.00,weatherlink.com 1.10,2013-10-24 08:09:00,
2013-10-24 03:24:00,37.5,34.0,30.15,NW,316,4.0,10.0,86,0.00,,,0.00,weatherlink.com 1.10,2013-10-24 08:24:00,
2013-10-24 03:39:00,37.4,32.0,30.15,WNW,299,9.0,11.0,80,0.00,,,0.00,weatherlink.com 1.10,2013-10-24 08:39:00,
2013-10-24 03:54:00,37.2,31.0,30.15,WNW,288,6.0,15.0,78,0.00,,,0.00,weatherlink.com 1.10,2013-10-24 08:54:00,
2013-10-24 04:09:00,36.8,29.0,30.16,NNW,335,6.0,12.0,72,0.00,,,0.00,weatherlink.com 1.10,2013-10-24 09:09:00,
2013-10-24 04:24:00,36.5,27.0,30.16,NNW,333,5.0,14.0,68,0.00,,,0.00,weatherlink.com 1.10,2013-10-24 09:24:00,
2013-10-24 04:39:00,36.3,25.0,30.16,NNW,329,3.0,14.0,64,0.00,,,0.00,weatherlink.com 1.10,2013-10-24 09:39:00,
2013-10-24 04:54:00,36.1,26.0,30.17,WNW,291,6.0,8.0,67,0.00,,,0.00,weatherlink.com 1.10,2013-10-24 09:54:00,
2013-10-24 05:09:00,36.0,27.0,30.17,NW,317,4.0,9.0,70,0.00,,,0.00,weatherlink.com 1.10,2013-10-24 10:09:00,
2013-10-24 05:24:00,35.9,27.0,30.18,WNW,298,2.0,9.0,71,0.00,,,0.00,weatherlink.com 1.10,2013-10-24 10:24:00,
2013-10-24 05:39:00,35.7,27.0,30.19,WNW,295,5.0,7.0,70,0.00,,,0.00,weatherlink.com 1.10,2013-10-24 10:39:00,
2013-10-24 05:54:00,35.6,26.0,30.19,WNW,292,4.0,10.0,68,0.00,,,0.00,weatherlink.com 1.10,2013-10-24 10:54:00,
2013-10-24 06:09:00,35.6,26.0,30.20,WNW,296,3.0,8.0,68,0.00,,,0.00,weatherlink.com 1.10,2013-10-24 11:09:00,
2013-10-24 06:24:00,35.6,26.0,30.20,WNW,290,3.0,9.0,69,0.00,,,0.00,weatherlink.com 1.10,2013-10-24 11:24:00,
2013-10-24 06:39:00,35.5,27.0,30.20,WNW,284,1.0,8.0,70,0.00,,,0.00,weatherlink.com 1.10,2013-10-24 11:39:00,
2013-10-24 06:54:00,35.2,26.0,30.20,West,269,5.0,5.0,70,0.00,,,0.00,weatherlink.com 1.10,2013-10-24 11:54:00,
2013-10-24 07:09:00,35.0,26.0,30.20,WNW,284,0.0,5.0,71,0.00,,,0.00,weatherlink.com 1.10,2013-10-24 12:09:00,
2013-10-24 07:24:00,34.9,27.0,30.20,WNW,284,3.0,5.0,72,0.00,,,0.00,weatherlink.com 1.10,2013-10-24 12:24:00,
2013-10-24 07:39:00,34.9,27.0,30.21,WNW,292,2.0,9.0,74,0.00,,,0.00,weatherlink.com 1.10,2013-10-24 12:39:00,
2013-10-24 07:54:00,35.1,28.0,30.22,WNW,302,7.0,9.0,75,0.00,,,0.00,weatherlink.com 1.10,2013-10-24 12:54:00,
2013-10-24 10:55:00,38.0,25.0,30.28,North,360,7.0,16.0,61,0.00,,,0.00,weatherlink.com 1.10,2013-10-24 15:55:00,
2013-10-24 11:10:00,37.7,25.0,30.29,WNW,303,4.0,14.0,61,0.00,,,0.00,weatherlink.com 1.10,2013-10-24 16:10:00,
2013-10-24 11:25:00,38.2,25.0,30.29,NW,319,7.0,14.0,60,0.00,,,0.00,weatherlink.com 1.10,2013-10-24 16:25:00,
2013-10-24 11:40:00,38.2,24.0,30.30,WNW,284,4.0,19.0,58,0.00,,,0.00,weatherlink.com 1.10,2013-10-24 16:40:00,
2013-10-24 11:55:00,38.4,24.0,30.30,WNW,292,5.0,14.0,56,0.00,,,0.00,weatherlink.com 1.10,2013-10-24 16:55:00,
2013-10-24 12:10:00,38.6,24.0,30.31,North,360,6.0,11.0,57,0.00,,,0.00,weatherlink.com 1.10,2013-10-24 17:10:00,
2013-10-24 12:25:00,38.6,24.0,30.31,NW,315,5.0,17.0,56,0.00,,,0.00,weatherlink.com 1.10,2013-10-24 17:25:00,
2013-10-24 12:40:00,39.1,24.0,30.31,NW,313,12.0,16.0,54,0.00,,,0.00,weatherlink.com 1.10,2013-10-24 17:40:00,
2013-10-24 12:55:00,39.0,24.0,30.31,NW,319,13.0,16.0,55,0.00,,,0.00,weatherlink.com 1.10,2013-10-24 17:55:00,
2013-10-24 13:10:00,39.5,25.0,30.31,NW,315,5.0,14.0,56,0.00,,,0.00,weatherlink.com 1.10,2013-10-24 18:10:00,
2013-10-24 13:25:00,39.7,23.0,30.31,NW,306,9.0,19.0,52,0.00,,,0.00,weatherlink.com 1.10,2013-10-24 18:25:00,
2013-10-24 13:40:00,39.5,23.0,30.31,West,280,8.0,15.0,52,0.00,,,0.00,weatherlink.com 1.10,2013-10-24 18:40:00,
2013-10-24 13:55:00,39.4,24.0,30.31,WNW,299,5.0,14.0,55,0.00,,,0.00,weatherlink.com 1.10,2013-10-24 18:55:00,
2013-10-24 14:10:00,39.3,25.0,30.32,North,351,4.0,13.0,56,0.00,,,0.00,weatherlink.com 1.10,2013-10-24 19:10:00,
2013-10-24 14:25:00,39.2,24.0,30.32,NNW,347,10.0,16.0,54,0.00,,,0.00,weatherlink.com 1.10,2013-10-24 19:25:00,
2013-10-24 14:40:00,39.3,24.0,30.32,NNE,29,7.0,14.0,54,0.00,,,0.00,weatherlink.com 1.10,2013-10-24 19:40:00,
2013-10-24 14:55:00,39.6,24.0,30.32,NW,304,5.0,15.0,54,0.00,,,0.00,weatherlink.com 1.10,2013-10-24 19:55:00,
2013-10-24 15:10:00,39.4,25.0,30.32,NNW,332,6.0,16.0,56,0.00,,,0.00,weatherlink.com 1.10,2013-10-24 20:10:00,
2013-10-24 15:25:00,39.3,25.0,30.33,NNW,333,12.0,17.0,56,0.00,,,0.00,weatherlink.com 1.10,2013-10-24 20:25:00,
2013-10-24 15:40:00,39.0,24.0,30.34,NNE,26,10.0,17.0,56,0.00,,,0.00,weatherlink.com 1.10,2013-10-24 20:40:00,
2013-10-24 15:56:00,38.4,25.0,30.34,North,360,6.0,16.0,58,0.00,,,0.00,weatherlink.com 1.10,2013-10-24 20:56:00,
2013-10-24 16:11:00,38.4,25.0,30.34,West,280,10.0,13.0,58,0.00,,,0.00,weatherlink.com 1.10,2013-10-24 21:11:00,
2013-10-24 16:26:00,38.1,25.0,30.34,NW,317,6.0,16.0,59,0.00,,,0.00,weatherlink.com 1.10,2013-10-24 21:26:00,
2013-10-24 16:41:00,38.2,25.0,30.34,NW,319,5.0,15.0,59,0.00,,,0.00,weatherlink.com 1.10,2013-10-24 21:41:00,
2013-10-24 16:56:00,38.0,24.0,30.35,NW,308,10.0,17.0,58,0.00,,,0.00,weatherlink.com 1.10,2013-10-24 21:56:00,
2013-10-24 17:11:00,37.8,24.0,30.36,NNW,331,5.0,17.0,58,0.00,,,0.00,weatherlink.com 1.10,2013-10-24 22:11:00,
2013-10-24 17:26:00,37.7,24.0,30.36,NW,325,6.0,13.0,59,0.00,,,0.00,weatherlink.com 1.10,2013-10-24 22:26:00,
2013-10-24 17:41:00,37.9,25.0,30.36,NW,307,3.0,8.0,59,0.00,,,0.00,weatherlink.com 1.10,2013-10-24 22:41:00,
2013-10-24 17:56:00,37.8,24.0,30.36,NW,322,3.0,10.0,59,0.00,,,0.00,weatherlink.com 1.10,2013-10-24 22:56:00,
2013-10-24 18:11:00,37.4,24.0,30.36,NW,305,2.0,7.0,60,0.00,,,0.00,weatherlink.com 1.10,2013-10-24 23:11:00,
2013-10-24 18:26:00,36.4,24.0,30.36,NW,306,2.0,5.0,62,0.00,,,0.00,weatherlink.com 1.10,2013-10-24 23:26:00,
2013-10-24 18:41:00,35.5,25.0,30.37,NW,319,0.0,4.0,65,0.00,,,0.00,weatherlink.com 1.10,2013-10-24 23:41:00,
2013-10-24 18:56:00,34.9,25.0,30.37,NW,319,0.0,4.0,66,0.00,,,0.00,weatherlink.com 1.10,2013-10-24 23:56:00,
2013-10-24 19:11:00,34.2,25.0,30.37,NW,319,0.0,3.0,68,0.00,,,0.00,weatherlink.com 1.10,2013-10-25 00:11:00,
2013-10-24 19:26:00,33.8,24.0,30.38,NW,319,0.0,2.0,68,0.00,,,0.00,weatherlink.com 1.10,2013-10-25 00:26:00,
2013-10-24 19:41:00,33.6,24.0,30.38,NW,319,0.0,3.0,69,0.00,,,0.00,weatherlink.com 1.10,2013-10-25 00:41:00,
2013-10-24 19:56:00,32.8,24.0,30.38,NW,319,0.0,2.0,71,0.00,,,0.00,weatherlink.com 1.10,2013-10-25 00:56:00,
2013-10-24 20:11:00,32.2,24.0,30.38,NW,319,0.0,2.0,73,0.00,,,0.00,weatherlink.com 1.10,2013-10-25 01:11:00,
2013-10-24 20:26:00,32.4,25.0,30.38,NW,319,0.0,2.0,73,0.00,,,0.00,weatherlink.com 1.10,2013-10-25 01:26:00,
2013-10-24 20:41:00,32.1,25.0,30.39,NW,319,0.0,1.0,74,0.00,,,0.00,weatherlink.com 1.10,2013-10-25 01:41:00,
2013-10-24 20:56:00,31.1,25.0,30.39,NW,319,0.0,0.0,77,0.00,,,0.00,weatherlink.com 1.10,2013-10-25 01:56:00,
2013-10-24 21:11:00,30.2,25.0,30.40,NW,319,0.0,0.0,80,0.00,,,0.00,weatherlink.com 1.10,2013-10-25 02:11:00,
2013-10-24 21:26:00,29.6,25.0,30.39,NW,319,0.0,0.0,83,0.00,,,0.00,weatherlink.com 1.10,2013-10-25 02:26:00,
2013-10-24 21:41:00,29.3,24.0,30.40,NW,319,0.0,1.0,82,0.00,,,0.00,weatherlink.com 1.10,2013-10-25 02:41:00,
2013-10-24 21:56:00,29.9,24.0,30.40,NW,319,0.0,2.0,80,0.00,,,0.00,weatherlink.com 1.10,2013-10-25 02:56:00,
2013-10-24 22:11:00,30.6,24.0,30.40,NW,314,0.0,2.0,77,0.00,,,0.00,weatherlink.com 1.10,2013-10-25 03:11:00,
2013-10-24 22:27:00,31.1,24.0,30.41,West,262,4.0,4.0,76,0.00,,,0.00,weatherlink.com 1.10,2013-10-25 03:27:00,
2013-10-24 22:42:00,31.6,24.0,30.41,West,268,1.0,4.0,74,0.00,,,0.00,weatherlink.com 1.10,2013-10-25 03:42:00,
2013-10-24 22:57:00,32.1,24.0,30.41,West,278,1.0,3.0,73,0.00,,,0.00,weatherlink.com 1.10,2013-10-25 03:57:00,
2013-10-24 23:12:00,32.1,24.0,30.42,West,277,0.0,2.0,73,0.00,,,0.00,weatherlink.com 1.10,2013-10-25 04:12:00,
2013-10-24 23:27:00,31.6,24.0,30.42,West,272,3.0,4.0,74,0.00,,,0.00,weatherlink.com 1.10,2013-10-25 04:27:00,
2013-10-24 23:42:00,31.1,24.0,30.42,West,273,0.0,3.0,75,0.00,,,0.00,weatherlink.com 1.10,2013-10-25 04:42:00,
2013-10-24 23:57:00,30.7,24.0,30.42,West,277,0.0,3.0,75,0.00,,,0.00,weatherlink.com 1.10,2013-10-25 04:57:00,